Time;durP1;ratioP1;P1;durP2;ratioP2;P2;SDS_P1;SDS_P2;PMS_P1;PMS_P2;Temp;Humidity;BMP_temperature;BMP_pressure;BME280_temperature;BME280_humidity;BME280_pressure;Samples;Min_cycle;Max_cycle;Signal;HPM_P1;HPM_P2
2023/01/23 00:02:03;;;;;;;;;;;;;;;9.43;100.00;100458.81;5093041;28;19912;-36
2023/01/23 00:04:28;;;;;;;;;;;;;;;9.24;100.00;100465.44;5093153;28;20382;-36
2023/01/23 00:06:54;;;;;;;;;;;;;;;9.32;100.00;100472.50;5092934;28;20296;-36
2023/01/23 00:09:19;;;;;;;;;;;;;;;9.10;100.00;100468.84;5093101;28;19913;-35
2023/01/23 00:11:44;;;;;;;;;;;;;;;9.14;100.00;100463.00;5092410;28;20377;-36
2023/01/23 00:14:10;;;;;;;;;;;;;;;9.29;100.00;100470.19;5092862;28;19916;-36
2023/01/23 00:16:35;;;;;;;;;;;;;;;9.16;100.00;100452.22;5092446;28;19919;-36
2023/01/23 00:19:01;;;;;;;;;;;;;;;8.90;100.00;100455.19;5092675;28;19927;-36
2023/01/23 00:21:27;;;;;;;;;;;;;;;9.06;100.00;100467.53;5092442;28;19924;-35
2023/01/23 00:23:53;;;;;;;;;;;;;;;9.20;100.00;100472.09;5091921;28;19919;-35
2023/01/23 00:26:19;;;;;;;;;;;;;;;9.11;100.00;100470.50;5092712;28;19912;-35
2023/01/23 00:28:46;;;;;;;;;;;;;;;9.23;100.00;100471.72;5092551;28;19992;-35
2023/01/23 00:31:12;;;;;;;;;;;;;;;9.12;100.00;100459.72;5092486;28;19916;-35
2023/01/23 00:33:38;;;;;;;;;;;;;;;9.15;100.00;100463.84;5092733;28;19918;-36
2023/01/23 00:36:04;;;;;;;;;;;;;;;9.32;100.00;100468.03;5092755;28;19999;-35
2023/01/23 00:38:29;;;;;;;;;;;;;;;9.42;100.00;100464.31;5092153;28;19920;-35
2023/01/23 00:40:55;;;;;;;;;;;;;;;9.15;100.00;100466.50;5092860;28;19912;-35
2023/01/23 00:43:21;;;;;;;;;;;;;;;9.15;100.00;100466.50;5092517;28;19919;-35
2023/01/23 00:45:46;;;;;;;;;;;;;;;9.26;100.00;100468.72;5092360;28;19961;-35
2023/01/23 00:48:11;;;;;;;;;;;;;;;9.27;100.00;100473.06;5092565;28;19912;-35
2023/01/23 00:50:37;;;;;;;;;;;;;;;9.13;100.00;100477.28;5092225;28;19912;-35
2023/01/23 00:53:02;;;;;;;;;;;;;;;9.25;100.00;100472.38;5092274;28;19913;-35
2023/01/23 00:55:27;;;;;;;;;;;;;;;9.13;100.00;100487.91;5092197;28;19912;-36
2023/01/23 00:57:52;;;;;;;;;;;;;;;9.29;100.00;100481.66;5092100;28;20061;-35
2023/01/23 01:00:18;;;;;;;;;;;;;;;9.45;100.00;100488.69;5092240;28;19916;-36
2023/01/23 01:02:43;;;;;;;;;;;;;;;9.25;100.00;100500.78;5092287;28;19956;-36
2023/01/23 01:05:08;;;;;;;;;;;;;;;9.49;100.00;100483.84;5092128;28;19923;-35
2023/01/23 01:07:34;;;;;;;;;;;;;;;9.34;100.00;100487.25;5092010;28;19912;-36
2023/01/23 01:09:59;;;;;;;;;;;;;;;9.31;100.00;100489.44;5091878;28;20407;-36
2023/01/23 01:12:24;;;;;;;;;;;;;;;9.27;100.00;100494.31;5091711;28;19912;-36
2023/01/23 01:14:50;;;;;;;;;;;;;;;9.46;100.00;100500.97;5092074;28;20320;-36
2023/01/23 01:17:15;;;;;;;;;;;;;;;9.65;100.00;100504.94;5091819;28;20233;-35
2023/01/23 01:19:40;;;;;;;;;;;;;;;9.70;100.00;100502.59;5091851;28;20375;-36
2023/01/23 01:22:05;;;;;;;;;;;;;;;9.36;100.00;100506.50;5091943;28;20014;-35
2023/01/23 01:24:31;;;;;;;;;;;;;;;9.16;100.00;100505.34;5094289;28;19948;-36
2023/01/23 01:26:56;;;;;;;;;;;;;;;9.06;100.00;100502.88;5096060;28;19912;-36
2023/01/23 01:29:21;;;;;;;;;;;;;;;9.09;100.00;100504.38;5096194;28;19948;-36
2023/01/23 01:31:47;;;;;;;;;;;;;;;9.22;100.00;100514.44;5096045;28;19912;-35
2023/01/23 01:34:12;;;;;;;;;;;;;;;9.14;100.00;100515.31;5096071;28;19969;-36
2023/01/23 01:36:38;;;;;;;;;;;;;;;9.03;100.00;100519.16;5095932;28;20365;-35
2023/01/23 01:39:03;;;;;;;;;;;;;;;9.26;100.00;100508.56;5095622;28;19965;-35
2023/01/23 01:41:29;;;;;;;;;;;;;;;9.38;100.00;100511.66;5095454;28;19912;-36
2023/01/23 01:43:56;;;;;;;;;;;;;;;9.10;100.00;100509.50;5095176;28;19912;-35
2023/01/23 01:46:31;;;;;;;;;;;;;;;9.06;100.00;100517.97;5095419;28;19936;-36
2023/01/23 01:48:56;;;;;;;;;;;;;;;9.25;100.00;100511.41;5095439;28;19912;-36
2023/01/23 01:51:34;;;;;;;;;;;;;;;9.08;100.00;100508.88;5095286;28;19920;-36
2023/01/23 01:54:19;;;;;;;;;;;;;;;9.27;100.00;100510.25;5095888;28;19995;-36
2023/01/23 01:56:51;;;;;;;;;;;;;;;9.13;100.00;100514.47;5088094;28;19958;-36
2023/01/23 01:59:17;;;;;;;;;;;;;;;9.46;100.00;100508.09;5095529;28;19916;-36
2023/01/23 02:01:44;;;;;;;;;;;;;;;9.23;100.00;100508.91;5095204;28;19996;-36
2023/01/23 02:04:10;;;;;;;;;;;;;;;9.22;100.00;100509.94;5095534;28;20008;-36
2023/01/23 02:06:35;;;;;;;;;;;;;;;9.21;100.00;100516.22;5094903;28;20585;-36
2023/01/23 02:09:07;;;;;;;;;;;;;;;9.00;100.00;100522.16;5095762;28;19913;-36
2023/01/23 02:11:32;;;;;;;;;;;;;;;9.30;100.00;100515.19;5095284;28;19920;-36
2023/01/23 02:13:58;;;;;;;;;;;;;;;9.03;100.00;100513.88;5095835;28;19912;-36
2023/01/23 02:16:28;;;;;;;;;;;;;;;9.15;100.00;100515.09;5095453;28;19967;-36
2023/01/23 02:18:56;;;;;;;;;;;;;;;9.17;100.00;100513.09;5094904;28;20295;-36
2023/01/23 02:21:22;;;;;;;;;;;;;;;9.15;100.00;100519.59;5094688;28;19924;-36
2023/01/23 02:24:07;;;;;;;;;;;;;;;9.22;100.00;100509.13;5094933;28;19913;-36
2023/01/23 02:26:43;;;;;;;;;;;;;;;8.95;100.00;100524.53;5094589;28;19913;-36
2023/01/23 02:29:09;;;;;;;;;;;;;;;8.81;100.00;100512.81;5094835;28;19916;-36
2023/01/23 02:31:36;;;;;;;;;;;;;;;9.11;100.00;100508.50;5094675;28;19993;-36
2023/01/23 02:34:02;;;;;;;;;;;;;;;9.16;100.00;100513.31;5094654;28;19998;-36
2023/01/23 02:36:28;;;;;;;;;;;;;;;9.17;100.00;100505.13;5094587;28;19943;-36
2023/01/23 02:39:03;;;;;;;;;;;;;;;9.18;100.00;100517.41;5094590;28;19981;-36
2023/01/23 02:41:30;;;;;;;;;;;;;;;9.27;100.00;100512.06;5094859;28;19912;-36
2023/01/23 02:43:57;;;;;;;;;;;;;;;9.48;100.00;100512.25;5094820;28;19920;-36
2023/01/23 02:46:23;;;;;;;;;;;;;;;9.10;100.00;100511.31;5094634;28;19999;-36
2023/01/23 02:48:48;;;;;;;;;;;;;;;8.91;100.00;100513.44;5094316;28;19955;-36
2023/01/23 02:51:15;;;;;;;;;;;;;;;9.16;100.00;100510.66;5094545;28;20102;-36
2023/01/23 02:53:41;;;;;;;;;;;;;;;9.37;100.00;100518.78;5094583;28;20339;-36
2023/01/23 02:56:06;;;;;;;;;;;;;;;9.34;100.00;100527.09;5094073;28;19962;-36
2023/01/23 03:01:15;;;;;;;;;;;;;;;9.29;100.00;100529.47;5094728;28;19918;-36
2023/01/23 03:03:41;;;;;;;;;;;;;;;9.20;100.00;100530.53;5094436;28;19912;-36
2023/01/23 03:06:06;;;;;;;;;;;;;;;9.04;100.00;100523.47;5094147;28;20352;-36
2023/01/23 03:08:35;;;;;;;;;;;;;;;9.25;100.00;100517.53;5094175;28;19912;-36
2023/01/23 03:11:01;;;;;;;;;;;;;;;8.86;100.00;100523.72;5094347;28;19916;-36
2023/01/23 03:13:27;;;;;;;;;;;;;;;8.97;100.00;100533.97;5094167;28;19919;-36
2023/01/23 03:15:52;;;;;;;;;;;;;;;9.06;100.00;100533.91;5093851;28;20011;-36
2023/01/23 03:18:18;;;;;;;;;;;;;;;9.12;100.00;100535.88;5093788;28;19981;-36
2023/01/23 03:20:43;;;;;;;;;;;;;;;9.11;100.00;100531.56;5093495;28;19974;-37
2023/01/23 03:23:09;;;;;;;;;;;;;;;8.96;100.00;100534.94;5093736;28;20307;-37
2023/01/23 03:25:34;;;;;;;;;;;;;;;9.09;100.00;100531.75;5093607;28;19969;-36
2023/01/23 03:27:59;;;;;;;;;;;;;;;8.82;100.00;100535.69;5093960;28;20353;-36
2023/01/23 03:30:25;;;;;;;;;;;;;;;9.07;100.00;100532.94;5093738;28;19912;-36
2023/01/23 03:32:50;;;;;;;;;;;;;;;8.88;100.00;100527.03;5093443;28;20263;-37
2023/01/23 03:35:18;;;;;;;;;;;;;;;9.19;100.00;100527.06;5093848;28;19916;-37
2023/01/23 03:37:45;;;;;;;;;;;;;;;8.96;100.00;100537.59;5093755;28;19912;-36
2023/01/23 03:43:01;;;;;;;;;;;;;;;8.87;100.00;100530.72;5093867;28;19919;-37
2023/01/23 03:45:27;;;;;;;;;;;;;;;8.45;100.00;100541.63;5093423;28;19916;-36
2023/01/23 03:47:52;;;;;;;;;;;;;;;8.43;100.00;100549.75;5092329;28;20335;-37
2023/01/23 03:50:17;;;;;;;;;;;;;;;8.75;100.00;100540.03;5093586;28;19949;-37
2023/01/23 03:52:43;;;;;;;;;;;;;;;8.49;100.00;100549.09;5093154;28;20383;-36
2023/01/23 03:55:08;;;;;;;;;;;;;;;8.37;100.00;100535.31;5093423;28;19947;-37
2023/01/23 03:57:33;;;;;;;;;;;;;;;8.49;100.00;100556.19;5093237;28;20333;-37
2023/01/23 03:59:59;;;;;;;;;;;;;;;8.52;100.00;100543.44;5093656;28;19920;-37
2023/01/23 04:02:24;;;;;;;;;;;;;;;8.68;100.00;100565.59;5093748;28;19927;-39
2023/01/23 04:04:49;;;;;;;;;;;;;;;8.51;100.00;100551.56;5093781;28;20441;-39
2023/01/23 04:07:14;;;;;;;;;;;;;;;8.69;100.00;100554.00;5093831;28;20003;-40
2023/01/23 04:09:40;;;;;;;;;;;;;;;8.47;100.00;100553.72;5093588;28;19916;-39
2023/01/23 04:12:05;;;;;;;;;;;;;;;8.39;100.00;100554.53;5093329;28;20011;-36
2023/01/23 04:14:35;;;;;;;;;;;;;;;8.45;100.00;100571.63;5092694;28;19919;-38
2023/01/23 04:17:01;;;;;;;;;;;;;;;8.41;100.00;100559.66;5092486;28;20371;-37
2023/01/23 04:19:26;;;;;;;;;;;;;;;8.16;100.00;100578.28;5092864;28;19924;-37
2023/01/23 04:21:51;;;;;;;;;;;;;;;8.07;100.00;100565.19;5092561;28;19916;-37
2023/01/23 04:24:17;;;;;;;;;;;;;;;8.19;100.00;100570.00;5092479;28;20015;-37
2023/01/23 04:26:42;;;;;;;;;;;;;;;8.18;100.00;100581.59;5092499;28;19962;-37
2023/01/23 04:29:07;;;;;;;;;;;;;;;8.17;100.00;100574.63;5092716;28;19947;-37
2023/01/23 04:31:33;;;;;;;;;;;;;;;8.27;100.00;100577.09;5092354;28;20332;-36
2023/01/23 04:33:58;;;;;;;;;;;;;;;8.11;100.00;100585.06;5092939;28;19965;-37
2023/01/23 04:36:23;;;;;;;;;;;;;;;8.08;100.00;100609.28;5092277;28;19935;-37
2023/01/23 04:38:49;;;;;;;;;;;;;;;8.13;100.00;100591.88;5092152;28;19934;-36
2023/01/23 04:41:19;;;;;;;;;;;;;;;8.21;100.00;100599.81;5092304;28;19916;-36
2023/01/23 04:43:44;;;;;;;;;;;;;;;8.18;100.00;100586.06;5090634;28;20002;-37
2023/01/23 04:46:09;;;;;;;;;;;;;;;8.27;100.00;100592.19;5091884;28;19952;-37
2023/01/23 04:48:35;;;;;;;;;;;;;;;8.08;100.00;100588.88;5092066;28;20256;-36
2023/01/23 04:51:00;;;;;;;;;;;;;;;8.12;100.00;100587.56;5092116;28;20024;-37
2023/01/23 04:53:25;;;;;;;;;;;;;;;8.23;100.00;100595.16;5091898;28;19911;-37
2023/01/23 04:55:50;;;;;;;;;;;;;;;8.23;100.00;100595.16;5091792;28;20291;-37
2023/01/23 04:58:17;;;;;;;;;;;;;;;8.13;100.00;100601.63;5091835;28;20031;-41
2023/01/23 05:00:42;;;;;;;;;;;;;;;8.18;100.00;100613.41;5092846;28;19955;-36
2023/01/23 05:03:07;;;;;;;;;;;;;;;8.13;100.00;100605.13;5091674;28;20383;-37
2023/01/23 05:05:33;;;;;;;;;;;;;;;8.44;100.00;100633.66;5091543;28;19912;-36
2023/01/23 05:07:58;;;;;;;;;;;;;;;8.17;100.00;100618.91;5091613;28;19999;-36
2023/01/23 05:10:23;;;;;;;;;;;;;;;8.20;100.00;100622.00;5091548;28;19916;-36
2023/01/23 05:12:49;;;;;;;;;;;;;;;8.26;100.00;100619.69;5091662;28;19912;-36
2023/01/23 05:15:16;;;;;;;;;;;;;;;8.27;100.00;100622.19;5091860;28;20364;-36
2023/01/23 05:17:41;;;;;;;;;;;;;;;8.11;100.00;100622.19;5091789;28;19916;-35
2023/01/23 05:20:07;;;;;;;;;;;;;;;8.33;100.00;100629.47;5091379;28;19977;-35
2023/01/23 05:22:34;;;;;;;;;;;;;;;8.74;100.00;100650.69;5091052;28;20296;-35
2023/01/23 05:25:00;;;;;;;;;;;;;;;8.37;100.00;100641.41;5091451;28;20538;-34
2023/01/23 05:27:25;;;;;;;;;;;;;;;8.99;100.00;100643.47;5091301;28;19962;-37
2023/01/23 05:29:50;;;;;;;;;;;;;;;8.55;99.10;100643.91;5091401;28;19969;-36
2023/01/23 05:32:16;;;;;;;;;;;;;;;9.07;98.62;100650.56;5091539;28;19919;-36
2023/01/23 05:34:41;;;;;;;;;;;;;;;9.11;97.52;100638.59;5091715;28;19912;-36
2023/01/23 05:37:06;;;;;;;;;;;;;;;9.08;96.20;100646.09;5089393;28;19913;-36
2023/01/23 05:39:32;;;;;;;;;;;;;;;9.06;93.25;100650.75;5077596;28;19924;-36
2023/01/23 05:41:57;;;;;;;;;;;;;;;8.39;96.42;100668.59;5076501;28;20316;-36
2023/01/23 05:44:22;;;;;;;;;;;;;;;8.29;98.35;100645.91;5090797;28;19920;-36
2023/01/23 05:46:47;;;;;;;;;;;;;;;8.08;99.12;100657.81;5091291;28;20411;-36
2023/01/23 05:49:13;;;;;;;;;;;;;;;8.49;97.58;100654.34;5090969;28;19962;-36
2023/01/23 05:51:38;;;;;;;;;;;;;;;8.26;99.47;100652.34;5089904;28;20371;-36
2023/01/23 05:54:03;;;;;;;;;;;;;;;8.05;99.61;100652.84;5089959;28;19913;-36
2023/01/23 05:56:29;;;;;;;;;;;;;;;8.03;99.40;100663.63;5090287;28;19965;-36
2023/01/23 05:58:54;;;;;;;;;;;;;;;8.25;98.35;100650.69;5090356;28;20335;-36
2023/01/23 06:01:20;;;;;;;;;;;;;;;8.12;98.27;100668.94;5090607;28;19922;-36
2023/01/23 06:03:45;;;;;;;;;;;;;;;8.10;99.06;100678.88;5088884;28;20303;-35
2023/01/23 06:06:10;;;;;;;;;;;;;;;7.87;99.51;100684.78;5088178;28;19923;-35
2023/01/23 06:08:36;;;;;;;;;;;;;;;7.99;100.00;100677.34;5105668;28;19915;-36
2023/01/23 06:11:01;;;;;;;;;;;;;;;8.25;99.07;100684.34;5112514;28;19912;-36
2023/01/23 06:13:27;;;;;;;;;;;;;;;7.99;99.45;100691.44;5113896;28;19951;-36
2023/01/23 06:15:52;;;;;;;;;;;;;;;7.71;100.00;100682.94;5112924;28;19926;-35
2023/01/23 06:18:18;;;;;;;;;;;;;;;7.85;100.00;100692.09;5114411;28;19961;-36
2023/01/23 06:20:43;;;;;;;;;;;;;;;8.05;99.33;100705.84;5114055;28;20368;-36
2023/01/23 06:23:09;;;;;;;;;;;;;;;7.73;100.00;100722.50;5114160;28;19922;-36
2023/01/23 06:25:35;;;;;;;;;;;;;;;7.75;100.00;100709.94;5112499;28;19935;-36
2023/01/23 06:28:00;;;;;;;;;;;;;;;7.96;100.00;100699.72;5113283;28;19915;-36
2023/01/23 06:30:25;;;;;;;;;;;;;;;8.18;99.08;100731.91;5112635;28;19912;-36
2023/01/23 06:32:50;;;;;;;;;;;;;;;7.97;98.74;100709.31;5112826;28;20292;-36
2023/01/23 06:35:16;;;;;;;;;;;;;;;7.89;99.10;100703.19;5112919;28;19977;-36
2023/01/23 06:37:41;;;;;;;;;;;;;;;7.90;99.21;100708.34;5113199;28;20375;-35
2023/01/23 06:40:11;;;;;;;;;;;;;;;8.06;97.77;100723.44;5114345;28;19920;-37
2023/01/23 06:42:37;;;;;;;;;;;;;;;8.29;96.93;100720.97;5113862;28;19911;-35
2023/01/23 06:45:02;;;;;;;;;;;;;;;8.00;97.80;100732.03;5114112;28;19984;-35
2023/01/23 06:47:27;;;;;;;;;;;;;;;8.62;95.80;100723.66;5114177;28;19912;-36
2023/01/23 06:49:52;;;;;;;;;;;;;;;8.27;94.98;100724.78;5113655;28;20337;-36
2023/01/23 06:52:18;;;;;;;;;;;;;;;8.42;94.87;100733.78;5113587;28;19954;-36
2023/01/23 06:54:43;;;;;;;;;;;;;;;8.37;94.64;100792.59;5113965;28;20322;-36
2023/01/23 06:57:08;;;;;;;;;;;;;;;8.49;93.86;100737.44;5113998;28;19963;-36
2023/01/23 06:59:33;;;;;;;;;;;;;;;8.36;93.92;100737.06;5113781;28;20420;-36
2023/01/23 07:01:59;;;;;;;;;;;;;;;8.37;93.66;100734.22;5113904;28;19912;-35
2023/01/23 07:04:24;;;;;;;;;;;;;;;8.48;93.59;100745.56;5113824;28;19958;-36
2023/01/23 07:06:49;;;;;;;;;;;;;;;8.63;93.18;100740.44;5113634;28;19919;-37
2023/01/23 07:09:15;;;;;;;;;;;;;;;8.77;91.43;100742.38;5113706;28;19919;-38
2023/01/23 07:11:40;;;;;;;;;;;;;;;8.84;90.02;100739.91;5113839;28;19923;-36
2023/01/23 07:14:06;;;;;;;;;;;;;;;8.45;93.22;100732.63;5113799;28;20313;-38
2023/01/23 07:16:31;;;;;;;;;;;;;;;8.22;93.94;100734.06;5113927;28;19915;-36
2023/01/23 07:18:57;;;;;;;;;;;;;;;8.11;94.43;100744.13;5113242;28;20006;-36
2023/01/23 07:21:23;;;;;;;;;;;;;;;8.22;94.45;100741.19;5113078;28;19930;-36
2023/01/23 07:23:49;;;;;;;;;;;;;;;8.16;95.28;100739.19;5113230;28;20282;-36
2023/01/23 07:26:15;;;;;;;;;;;;;;;8.12;94.44;100757.25;5102984;28;19919;-35
2023/01/23 07:28:40;;;;;;;;;;;;;;;7.86;96.17;100743.25;5092937;28;20327;-36
2023/01/23 07:31:05;;;;;;;;;;;;;;;8.04;95.95;100751.94;5093155;28;20268;-37
2023/01/23 07:33:31;;;;;;;;;;;;;;;7.94;96.19;100745.91;5092824;28;19927;-36
2023/01/23 07:35:56;;;;;;;;;;;;;;;8.09;96.77;100746.13;5092642;28;19919;-37
2023/01/23 07:38:24;;;;;;;;;;;;;;;8.05;96.13;100740.31;5092735;28;19951;-37
2023/01/23 07:40:50;;;;;;;;;;;;;;;8.31;94.40;100761.41;5092804;28;19912;-38
2023/01/23 07:43:16;;;;;;;;;;;;;;;8.29;94.63;100758.09;5092848;28;20315;-36
2023/01/23 07:45:42;;;;;;;;;;;;;;;8.35;94.66;100759.28;5092887;28;19912;-37
2023/01/23 07:48:07;;;;;;;;;;;;;;;8.32;95.52;100755.13;5092591;28;19931;-36
2023/01/23 07:50:34;;;;;;;;;;;;;;;8.37;94.59;100757.28;5092314;28;19912;-35
2023/01/23 07:52:59;;;;;;;;;;;;;;;8.31;94.42;100745.50;5092352;28;19961;-36
2023/01/23 07:55:25;;;;;;;;;;;;;;;8.49;93.95;100737.44;5092438;28;19920;-37
2023/01/23 07:57:50;;;;;;;;;;;;;;;8.51;93.95;100740.75;5092326;28;20364;-38
2023/01/23 08:00:16;;;;;;;;;;;;;;;8.59;93.04;100740.75;5092343;28;19966;-36
2023/01/23 08:02:41;;;;;;;;;;;;;;;8.37;93.76;100733.41;5092133;28;19912;-36
2023/01/23 08:05:06;;;;;;;;;;;;;;;8.34;94.51;100744.34;5091942;28;19924;-36
2023/01/23 08:07:32;;;;;;;;;;;;;;;8.33;94.84;100743.50;5092106;28;19970;-36
2023/01/23 08:09:57;;;;;;;;;;;;;;;8.39;94.72;100755.28;5091996;28;20342;-39
2023/01/23 08:12:22;;;;;;;;;;;;;;;8.21;95.51;100758.09;5092337;28;19926;-37
2023/01/23 08:14:47;;;;;;;;;;;;;;;8.20;96.40;100757.25;5092118;28;20286;-37
2023/01/23 08:17:13;;;;;;;;;;;;;;;8.24;96.70;100752.44;5092089;28;19931;-37
2023/01/23 08:19:38;;;;;;;;;;;;;;;8.35;96.05;100761.91;5091763;28;19928;-37
2023/01/23 08:22:04;;;;;;;;;;;;;;;8.20;97.38;100770.50;5092041;28;19984;-36
2023/01/23 08:24:29;;;;;;;;;;;;;;;8.46;95.86;100761.63;5090361;28;19913;-37
2023/01/23 08:26:54;;;;;;;;;;;;;;;8.31;95.61;100755.28;5091768;28;19919;-38
2023/01/23 08:29:20;;;;;;;;;;;;;;;8.24;96.11;100763.06;5092051;28;20432;-36
2023/01/23 08:31:45;;;;;;;;;;;;;;;8.48;96.35;100757.00;5091550;28;19912;-37
2023/01/23 08:34:10;;;;;;;;;;;;;;;8.51;95.84;100785.00;5091275;28;19922;-37
2023/01/23 08:36:35;;;;;;;;;;;;;;;8.41;96.24;100769.22;5091413;28;19912;-37
2023/01/23 08:39:01;;;;;;;;;;;;;;;8.48;95.88;100769.44;5091237;28;19963;-37
2023/01/23 08:41:26;;;;;;;;;;;;;;;8.27;96.69;100775.19;5091330;28;19912;-37
2023/01/23 08:43:51;;;;;;;;;;;;;;;8.13;98.40;100763.38;5091503;28;19920;-37
2023/01/23 08:46:16;;;;;;;;;;;;;;;8.33;97.20;100769.22;5091210;28;20294;-37
2023/01/23 08:48:42;;;;;;;;;;;;;;;8.32;97.29;100775.50;5091438;28;19912;-37
2023/01/23 08:51:09;;;;;;;;;;;;;;;8.07;98.31;100788.69;5091442;28;19912;-36
2023/01/23 08:53:37;;;;;;;;;;;;;;;8.04;99.43;100781.09;5091739;28;19931;-37
2023/01/23 08:56:04;;;;;;;;;;;;;;;8.54;96.21;100780.19;5091440;28;19912;-37
2023/01/23 08:58:30;;;;;;;;;;;;;;;8.25;97.03;100809.81;5091128;28;19999;-37
2023/01/23 09:00:56;;;;;;;;;;;;;;;8.08;98.31;100773.66;5091098;28;19999;-36
2023/01/23 09:03:21;;;;;;;;;;;;;;;8.06;98.67;100781.75;5091229;28;20002;-36
2023/01/23 09:05:47;;;;;;;;;;;;;;;8.28;97.90;100774.16;5091496;28;19919;-38
2023/01/23 09:08:12;;;;;;;;;;;;;;;8.26;97.72;100786.75;5091032;28;20333;-37
2023/01/23 09:10:38;;;;;;;;;;;;;;;8.10;98.04;100774.31;5091681;28;19912;-36
2023/01/23 09:13:03;;;;;;;;;;;;;;;8.25;97.51;100788.59;5091087;28;19935;-37
2023/01/23 09:15:28;;;;;;;;;;;;;;;8.29;98.42;100771.38;5091375;28;20021;-37
2023/01/23 09:17:54;;;;;;;;;;;;;;;8.57;96.14;100766.63;5091132;28;20276;-38
2023/01/23 09:20:19;;;;;;;;;;;;;;;8.47;96.68;100776.53;5090904;28;19924;-37
2023/01/23 09:22:44;;;;;;;;;;;;;;;7.99;98.68;100767.47;5090918;28;19963;-36
2023/01/23 09:25:10;;;;;;;;;;;;;;;8.06;99.68;100757.91;5090914;28;19916;-38
2023/01/23 09:27:35;;;;;;;;;;;;;;;8.49;97.16;100755.16;5090979;28;19912;-37
2023/01/23 09:30:00;;;;;;;;;;;;;;;8.31;97.45;100758.75;5090759;28;19923;-36
2023/01/23 09:32:26;;;;;;;;;;;;;;;8.31;98.02;100757.94;5090983;28;20006;-36
2023/01/23 09:34:53;;;;;;;;;;;;;;;8.34;98.00;100776.16;5091038;28;19924;-37
2023/01/23 09:37:19;;;;;;;;;;;;;;;8.25;98.48;100755.94;5090923;28;20360;-37
2023/01/23 09:39:44;;;;;;;;;;;;;;;8.44;96.76;100766.28;5090886;28;19942;-37
2023/01/23 09:42:16;;;;;;;;;;;;;;;8.25;97.81;100763.91;5090877;28;20368;-38
2023/01/23 09:44:44;;;;;;;;;;;;;;;8.61;97.05;100753.84;5090711;28;19939;-36
2023/01/23 09:47:13;;;;;;;;;;;;;;;8.66;95.12;100762.13;5094412;28;19916;-37
2023/01/23 09:49:41;;;;;;;;;;;;;;;8.50;95.78;100751.53;5094688;28;19956;-37
2023/01/23 09:52:12;;;;;;;;;;;;;;;8.56;95.72;100759.63;5094797;28;20019;-37
2023/01/23 09:54:42;;;;;;;;;;;;;;;8.50;95.38;100778.06;5094690;28;20067;-37
2023/01/23 09:57:21;;;;;;;;;;;;;;;8.63;94.76;100761.66;5094192;28;20097;-36
2023/01/23 09:59:49;;;;;;;;;;;;;;;8.80;94.37;100748.19;5094195;28;19917;-36
2023/01/23 10:02:19;;;;;;;;;;;;;;;8.84;93.60;100750.53;5094765;28;19919;-38
2023/01/23 10:04:48;;;;;;;;;;;;;;;8.59;94.08;100766.47;5094703;28;19916;-37
2023/01/23 10:07:29;;;;;;;;;;;;;;;8.79;93.74;100748.34;5094577;28;19912;-37
2023/01/23 10:10:04;;;;;;;;;;;;;;;9.09;91.94;100753.97;5094461;28;20424;-35
2023/01/23 10:12:53;;;;;;;;;;;;;;;9.23;90.80;100760.41;5094483;28;19950;-36
2023/01/23 10:15:37;;;;;;;;;;;;;;;9.00;92.54;100742.53;5091109;28;19991;-36
2023/01/23 10:18:23;;;;;;;;;;;;;;;9.11;91.42;100746.66;5094383;28;19916;-36
2023/01/23 10:20:54;;;;;;;;;;;;;;;9.09;90.66;100749.47;5093553;28;19981;-37
2023/01/23 10:23:22;;;;;;;;;;;;;;;8.70;92.93;100747.56;5093855;28;19912;-37
2023/01/23 10:25:48;;;;;;;;;;;;;;;8.68;93.22;100738.09;5094024;28;19931;-36
2023/01/23 10:28:23;;;;;;;;;;;;;;;8.60;94.12;100739.75;5094274;28;20429;-36
2023/01/23 10:30:50;;;;;;;;;;;;;;;8.86;93.80;100737.91;5093759;28;19920;-37
2023/01/23 10:33:16;;;;;;;;;;;;;;;8.96;93.08;100752.66;5093869;28;20375;-36
2023/01/23 10:35:50;;;;;;;;;;;;;;;8.50;94.15;100740.91;5093638;28;19916;-37
2023/01/23 10:38:18;;;;;;;;;;;;;;;8.75;95.03;100739.06;5093739;28;20003;-36
2023/01/23 10:43:30;;;;;;;;;;;;;;;9.18;90.40;100735.19;5094177;28;19970;-37
2023/01/23 10:45:55;;;;;;;;;;;;;;;9.30;90.26;100729.53;5093764;28;19920;-35
2023/01/23 10:48:40;;;;;;;;;;;;;;;8.82;92.62;100718.84;5093816;28;20018;-36
2023/01/23 10:51:25;;;;;;;;;;;;;;;9.28;91.43;100727.03;5093651;28;19919;-36
2023/01/23 10:53:59;;;;;;;;;;;;;;;9.36;89.87;100734.97;5093499;28;19919;-37
2023/01/23 10:56:25;;;;;;;;;;;;;;;9.13;91.19;100713.63;5093010;28;19916;-35
2023/01/23 10:58:54;;;;;;;;;;;;;;;8.98;91.35;100712.66;5093142;28;19950;-37
2023/01/23 11:01:26;;;;;;;;;;;;;;;8.92;90.84;100721.31;5092969;28;19912;-36
2023/01/23 11:03:51;;;;;;;;;;;;;;;8.80;91.95;100720.84;5093141;28;20138;-38
2023/01/23 11:06:17;;;;;;;;;;;;;;;8.95;91.16;100723.63;5093075;28;19919;-36
2023/01/23 11:08:51;;;;;;;;;;;;;;;9.06;91.23;100720.59;5093039;28;20303;-36
2023/01/23 11:11:18;;;;;;;;;;;;;;;9.43;88.64;100740.44;5093008;28;20303;-37
2023/01/23 11:13:45;;;;;;;;;;;;;;;8.97;90.93;100727.78;5093200;28;19919;-36
2023/01/23 11:16:14;;;;;;;;;;;;;;;9.38;88.66;100732.97;5092303;28;19916;-36
2023/01/23 11:18:43;;;;;;;;;;;;;;;9.09;89.34;100735.38;5093043;28;20297;-37
2023/01/23 11:21:28;;;;;;;;;;;;;;;8.93;90.60;100720.28;5093079;28;19931;-37
2023/01/23 11:24:12;;;;;;;;;;;;;;;8.93;91.70;100714.97;5094338;28;19916;-38
2023/01/23 11:26:38;;;;;;;;;;;;;;;8.61;92.31;100714.06;5094132;28;20295;-39
2023/01/23 11:29:18;;;;;;;;;;;;;;;8.65;92.05;100725.16;5094218;28;19912;-38
2023/01/23 11:31:44;;;;;;;;;;;;;;;8.40;93.46;100718.00;5094102;28;20341;-39
2023/01/23 11:34:11;;;;;;;;;;;;;;;8.47;92.84;100709.41;5092784;28;19916;-37
2023/01/23 11:36:36;;;;;;;;;;;;;;;8.67;92.09;100707.25;5092502;28;19934;-37
2023/01/23 11:39:20;;;;;;;;;;;;;;;8.45;92.24;100709.56;5092299;28;19916;-36
2023/01/23 11:41:45;;;;;;;;;;;;;;;8.50;91.65;100725.00;5092510;28;20003;-39
2023/01/23 11:44:21;;;;;;;;;;;;;;;8.42;91.88;100709.91;5092663;28;20414;-36
2023/01/23 11:46:49;;;;;;;;;;;;;;;8.34;91.63;100715.16;5092372;28;19912;-36
2023/01/23 11:49:24;;;;;;;;;;;;;;;8.27;92.61;100709.69;5091864;28;19992;-37
2023/01/23 11:51:59;;;;;;;;;;;;;;;8.60;90.43;100723.84;5092321;28;19913;-37
2023/01/23 11:54:33;;;;;;;;;;;;;;;8.64;89.99;100713.69;5092162;28;20010;-37
2023/01/23 11:57:08;;;;;;;;;;;;;;;8.35;90.84;100746.00;5092104;28;19912;-37
2023/01/23 11:59:45;;;;;;;;;;;;;;;8.23;91.84;100733.06;5091864;28;20428;-36
2023/01/23 12:02:11;;;;;;;;;;;;;;;8.12;91.97;100735.22;5092146;28;19943;-36
2023/01/23 12:04:58;;;;;;;;;;;;;;;8.39;90.97;100721.63;5091749;28;20432;-36
2023/01/23 12:07:25;;;;;;;;;;;;;;;8.41;91.53;100718.81;5091401;28;19919;-37
2023/01/23 12:09:59;;;;;;;;;;;;;;;8.29;91.35;100726.28;5091946;28;19928;-37
2023/01/23 12:12:36;;;;;;;;;;;;;;;8.31;92.14;100731.41;5091809;28;19912;-37
2023/01/23 12:15:08;;;;;;;;;;;;;;;8.43;91.10;100724.81;5092038;28;19919;-37
2023/01/23 12:17:36;;;;;;;;;;;;;;;8.40;91.72;100733.91;5092060;28;19919;-38
2023/01/23 12:20:20;;;;;;;;;;;;;;;8.65;89.79;100725.16;5091577;28;20055;-37
2023/01/23 12:22:45;;;;;;;;;;;;;;;8.24;91.56;100749.78;5092275;28;19919;-36
2023/01/23 12:25:19;;;;;;;;;;;;;;;8.20;91.91;100730.72;5092170;28;19912;-36
2023/01/23 12:27:47;;;;;;;;;;;;;;;8.26;91.47;100742.50;5091690;28;19922;-37
2023/01/23 12:30:18;;;;;;;;;;;;;;;8.33;91.70;100742.69;5091321;28;19935;-36
2023/01/23 12:32:58;;;;;;;;;;;;;;;8.20;91.32;100703.38;5091636;28;20302;-36
2023/01/23 12:35:42;;;;;;;;;;;;;;;8.31;91.61;100739.38;5091552;28;19912;-36
2023/01/23 12:38:22;;;;;;;;;;;;;;;8.29;91.62;100751.97;5091425;28;20052;-37
2023/01/23 12:40:51;;;;;;;;;;;;;;;8.54;91.30;100753.66;5091525;28;20003;-38
2023/01/23 12:43:20;;;;;;;;;;;;;;;8.05;93.63;100777.44;5091415;28;19912;-36
2023/01/23 12:45:50;;;;;;;;;;;;;;;8.16;94.08;100755.09;5091615;28;20003;-37
2023/01/23 12:48:20;;;;;;;;;;;;;;;8.09;93.36;100764.69;5091335;28;19919;-37
2023/01/23 12:50:48;;;;;;;;;;;;;;;8.29;92.81;100767.88;5091432;28;20356;-36
2023/01/23 12:53:14;;;;;;;;;;;;;;;8.34;91.55;100777.00;5091303;28;19912;-36